Time;durP1;ratioP1;P1;durP2;ratioP2;P2;SDS_P1;SDS_P2;PMS_P1;PMS_P2;Temp;Humidity;BMP_temperature;BMP_pressure;BME280_temperature;BME280_humidity;BME280_pressure;Samples;Min_cycle;Max_cycle;Signal;HPM_P1;HPM_P2
2022/01/02 00:01:59;;;;;;;4.37;3.00;;;;;;;;;;143725;572;46023;-57
2022/01/02 00:04:30;;;;;;;3.40;3.10;;;;;;;;;;143726;566;46018;-59
2022/01/02 00:07:03;;;;;;;5.25;3.70;;;;;;;;;;143730;576;46022;-60
2022/01/02 00:09:34;;;;;;;5.50;3.00;;;;;;;;;;143726;576;47018;-58
2022/01/02 00:12:17;;;;;;;8.25;3.67;;;;;;;;;;143725;670;46022;-58
2022/01/02 00:14:46;;;;;;;5.72;3.35;;;;;;;;;;143724;564;46913;-59
2022/01/02 00:17:16;;;;;;;5.37;3.45;;;;;;;;;;143731;605;46023;-59
2022/01/02 00:19:52;;;;;;;4.28;2.83;;;;;;;;;;143728;585;46020;-58
2022/01/02 00:22:34;;;;;;;3.78;3.03;;;;;;;;;;143727;621;47920;-59
2022/01/02 00:25:04;;;;;;;4.65;3.37;;;;;;;;;;143724;579;46018;-58
2022/01/02 00:27:34;;;;;;;4.93;2.87;;;;;;;;;;143725;587;46022;-58
2022/01/02 00:30:04;;;;;;;5.18;3.33;;;;;;;;;;143725;567;47019;-59
2022/01/02 00:32:33;;;;;;;5.50;3.12;;;;;;;;;;143723;571;46030;-58
2022/01/02 00:35:01;;;;;;;4.60;3.47;;;;;;;;;;143727;611;46018;-59
2022/01/02 00:37:28;;;;;;;4.10;3.33;;;;;;;;;;143731;565;46022;-58
2022/01/02 00:39:55;;;;;;;4.03;3.17;;;;;;;;;;143727;570;46021;-58
2022/01/02 00:42:35;;;;;;;3.22;2.92;;;;;;;;;;143725;592;46022;-57
2022/01/02 00:45:29;;;;;;;6.18;3.12;;;;;;;;;;143726;621;46018;-58
2022/01/02 00:48:15;;;;;;;4.65;2.97;;;;;;;;;;143732;678;46024;-57
2022/01/02 00:50:55;;;;;;;6.30;4.15;;;;;;;;;;143727;564;47020;-59
2022/01/02 00:53:26;;;;;;;7.15;3.78;;;;;;;;;;143725;579;46023;-59
2022/01/02 00:56:00;;;;;;;6.45;3.42;;;;;;;;;;143725;592;46018;-59
2022/01/02 00:58:34;;;;;;;6.62;3.67;;;;;;;;;;143731;581;46022;-58
2022/01/02 01:01:05;;;;;;;4.72;3.53;;;;;;;;;;143728;649;46046;-58
2022/01/02 01:03:32;;;;;;;6.90;3.70;;;;;;;;;;143725;750;46022;-58
2022/01/02 01:06:04;;;;;;;7.32;3.50;;;;;;;;;;143729;583;46018;-58
2022/01/02 01:08:36;;;;;;;4.97;3.70;;;;;;;;;;143731;597;46023;-58
2022/01/02 01:11:11;;;;;;;5.62;3.35;;;;;;;;;;143726;694;47018;-57
2022/01/02 01:13:38;;;;;;;8.43;4.00;;;;;;;;;;143727;618;46022;-57
2022/01/02 01:16:05;;;;;;;5.43;3.60;;;;;;;;;;143728;579;46019;-57
2022/01/02 01:18:32;;;;;;;5.30;3.70;;;;;;;;;;143732;570;46022;-57
2022/01/02 01:20:59;;;;;;;4.78;3.58;;;;;;;;;;143725;645;47018;-57
2022/01/02 01:23:27;;;;;;;6.20;3.80;;;;;;;;;;143728;567;46022;-57
2022/01/02 01:25:56;;;;;;;5.05;3.42;;;;;;;;;;143727;576;46018;-58
2022/01/02 01:28:24;;;;;;;9.43;4.10;;;;;;;;;;143730;585;46022;-57
2022/01/02 01:30:51;;;;;;;5.70;4.03;;;;;;;;;;143727;644;46021;-57
2022/01/02 01:33:20;;;;;;;4.75;3.45;;;;;;;;;;143724;667;46022;-57
2022/01/02 01:35:47;;;;;;;6.53;3.78;;;;;;;;;;143728;570;46018;-57
2022/01/02 01:38:14;;;;;;;4.78;3.83;;;;;;;;;;143734;614;46023;-58
2022/01/02 01:41:26;;;;;;;11.48;4.32;;;;;;;;;;143729;577;46020;-57
2022/01/02 01:44:07;;;;;;;6.12;3.45;;;;;;;;;;143727;582;46022;-58
2022/01/02 01:46:34;;;;;;;5.50;4.00;;;;;;;;;;143728;624;46019;-57
2022/01/02 01:49:01;;;;;;;5.78;4.05;;;;;;;;;;143732;570;46022;-58
2022/01/02 01:51:28;;;;;;;5.03;3.70;;;;;;;;;;143727;569;46913;-57
2022/01/02 01:53:55;;;;;;;5.60;3.70;;;;;;;;;;143725;627;46023;-58
2022/01/02 01:56:22;;;;;;;4.62;3.42;;;;;;;;;;143727;643;46018;-58
2022/01/02 01:58:49;;;;;;;7.37;3.75;;;;;;;;;;143730;571;46031;-58
2022/01/02 02:01:16;;;;;;;5.37;3.65;;;;;;;;;;143728;593;46021;-58
2022/01/02 02:03:43;;;;;;;4.57;3.62;;;;;;;;;;143729;646;46022;-58
2022/01/02 02:06:13;;;;;;;8.30;4.20;;;;;;;;;;143727;630;46018;-56
2022/01/02 02:08:43;;;;;;;6.57;4.40;;;;;;;;;;143732;573;46023;-56
2022/01/02 02:11:10;;;;;;;7.80;3.65;;;;;;;;;;143728;569;47020;-57
2022/01/02 02:13:39;;;;;;;5.53;3.78;;;;;;;;;;143725;619;46023;-56
2022/01/02 02:16:06;;;;;;;4.37;3.25;;;;;;;;;;143727;689;46019;-56
2022/01/02 02:18:34;;;;;;;6.53;4.03;;;;;;;;;;143732;583;46022;-58
2022/01/02 02:21:01;;;;;;;5.82;4.32;;;;;;;;;;143728;590;47019;-57
2022/01/02 02:23:28;;;;;;;5.45;3.67;;;;;;;;;;143727;609;47918;-57
2022/01/02 02:25:55;;;;;;;4.75;3.55;;;;;;;;;;143724;587;46018;-56
2022/01/02 02:28:28;;;;;;;7.12;4.18;;;;;;;;;;143730;592;46022;-57
2022/01/02 02:30:55;;;;;;;4.07;3.22;;;;;;;;;;143730;592;46021;-57
2022/01/02 02:33:24;;;;;;;4.70;3.42;;;;;;;;;;143728;576;46022;-57
2022/01/02 02:35:51;;;;;;;4.95;3.87;;;;;;;;;;143726;595;46018;-57
2022/01/02 02:38:19;;;;;;;6.95;4.00;;;;;;;;;;143731;618;46023;-57
2022/01/02 02:40:47;;;;;;;6.53;3.87;;;;;;;;;;143729;620;46020;-56
2022/01/02 02:43:30;;;;;;;5.20;3.53;;;;;;;;;;143727;603;46022;-58
2022/01/02 02:49:02;;;;;;;6.45;4.22;;;;;;;;;;143733;593;46022;-57
2022/01/02 02:51:45;;;;;;;5.80;3.33;;;;;;;;;;143729;651;46020;-57
2022/01/02 02:54:27;;;;;;;6.00;4.12;;;;;;;;;;143723;670;46022;-57
2022/01/02 02:57:00;;;;;;;5.35;3.78;;;;;;;;;;143728;565;46018;-58
2022/01/02 02:59:32;;;;;;;4.65;3.58;;;;;;;;;;143732;579;46022;-57
2022/01/02 03:02:00;;;;;;;5.32;3.70;;;;;;;;;;143729;616;46020;-58
2022/01/02 03:04:27;;;;;;;5.55;3.42;;;;;;;;;;143726;714;46919;-58
2022/01/02 03:06:54;;;;;;;6.10;4.07;;;;;;;;;;143728;569;46019;-58
2022/01/02 03:09:46;;;;;;;4.78;3.97;;;;;;;;;;143729;576;46023;-58
2022/01/02 03:12:13;;;;;;;4.30;3.25;;;;;;;;;;143729;581;46018;-57
2022/01/02 03:14:40;;;;;;;5.12;3.35;;;;;;;;;;143725;635;46023;-58
2022/01/02 03:17:07;;;;;;;5.22;3.62;;;;;;;;;;143730;570;46018;-58
2022/01/02 03:19:35;;;;;;;7.40;3.78;;;;;;;;;;143731;585;46022;-58
2022/01/02 03:22:03;;;;;;;5.40;3.72;;;;;;;;;;143730;570;46020;-57
2022/01/02 03:24:30;;;;;;;5.20;4.05;;;;;;;;;;143727;572;46022;-58
2022/01/02 03:26:56;;;;;;;5.93;4.47;;;;;;;;;;143727;588;46018;-57
2022/01/02 03:29:23;;;;;;;5.95;4.35;;;;;;;;;;143730;593;46022;-58
2022/01/02 03:31:51;;;;;;;6.28;4.65;;;;;;;;;;143729;631;46048;-58
2022/01/02 03:34:18;;;;;;;6.28;4.37;;;;;;;;;;143727;564;46022;-58
2022/01/02 03:36:44;;;;;;;7.40;5.30;;;;;;;;;;143726;573;46018;-56
2022/01/02 03:39:11;;;;;;;7.05;5.35;;;;;;;;;;143731;567;46022;-57
2022/01/02 03:41:39;;;;;;;8.20;5.43;;;;;;;;;;143729;579;46020;-56
2022/01/02 03:44:06;;;;;;;6.80;4.80;;;;;;;;;;143726;602;46920;-56
2022/01/02 03:46:33;;;;;;;8.50;5.40;;;;;;;;;;143728;588;46018;-57
2022/01/02 03:49:00;;;;;;;6.12;4.90;;;;;;;;;;143729;578;46022;-58
2022/01/02 03:51:28;;;;;;;6.57;4.57;;;;;;;;;;143727;569;47020;-57
2022/01/02 03:53:55;;;;;;;7.05;5.43;;;;;;;;;;143726;645;46031;-57
2022/01/02 03:56:22;;;;;;;9.93;5.28;;;;;;;;;;143730;608;46018;-58
2022/01/02 03:58:49;;;;;;;6.20;4.85;;;;;;;;;;143731;632;46022;-57
2022/01/02 04:01:16;;;;;;;10.73;5.93;;;;;;;;;;143729;615;46021;-56
2022/01/02 04:03:43;;;;;;;8.25;5.10;;;;;;;;;;143725;569;46022;-57
2022/01/02 04:06:10;;;;;;;7.25;5.22;;;;;;;;;;143729;566;46018;-56
2022/01/02 04:08:37;;;;;;;7.50;5.32;;;;;;;;;;143730;589;46035;-57
2022/01/02 04:11:05;;;;;;;10.70;5.40;;;;;;;;;;143729;592;46020;-57
2022/01/02 04:13:32;;;;;;;7.97;5.18;;;;;;;;;;143727;609;46023;-56
2022/01/02 04:15:59;;;;;;;7.43;5.60;;;;;;;;;;143729;600;46018;-57
2022/01/02 04:18:26;;;;;;;8.20;6.12;;;;;;;;;;143731;598;47022;-58
2022/01/02 04:20:53;;;;;;;8.10;5.65;;;;;;;;;;143728;661;47020;-57
2022/01/02 04:23:20;;;;;;;9.65;5.78;;;;;;;;;;143729;633;46023;-56
2022/01/02 04:25:50;;;;;;;11.82;6.97;;;;;;;;;;143728;624;46018;-57
2022/01/02 04:28:17;;;;;;;12.30;6.37;;;;;;;;;;143732;583;46022;-57
2022/01/02 04:30:44;;;;;;;10.18;7.53;;;;;;;;;;143729;602;47040;-57
2022/01/02 04:33:11;;;;;;;9.00;5.90;;;;;;;;;;143725;625;46022;-58
2022/01/02 04:35:38;;;;;;;10.13;7.35;;;;;;;;;;143727;571;46018;-57
2022/01/02 04:38:05;;;;;;;7.97;6.22;;;;;;;;;;143731;570;46023;-58
2022/01/02 04:40:31;;;;;;;8.90;6.30;;;;;;;;;;143729;599;47020;-57
2022/01/02 04:42:58;;;;;;;10.02;6.72;;;;;;;;;;143728;592;46023;-57
2022/01/02 04:45:25;;;;;;;9.00;6.20;;;;;;;;;;143727;590;46019;-56
2022/01/02 04:47:52;;;;;;;9.48;6.20;;;;;;;;;;143730;564;46022;-57
2022/01/02 04:50:20;;;;;;;8.68;5.78;;;;;;;;;;143727;582;47019;-57
2022/01/02 04:52:47;;;;;;;10.48;6.50;;;;;;;;;;143726;631;46031;-56
2022/01/02 04:55:14;;;;;;;8.35;6.37;;;;;;;;;;143726;584;46018;-57
2022/01/02 04:57:41;;;;;;;10.73;6.18;;;;;;;;;;143733;570;46022;-58
2022/01/02 05:00:08;;;;;;;10.55;6.72;;;;;;;;;;143729;565;46021;-57
2022/01/02 05:02:36;;;;;;;10.32;7.20;;;;;;;;;;143727;564;46022;-57
2022/01/02 05:05:03;;;;;;;10.15;7.25;;;;;;;;;;143727;618;46020;-57
2022/01/02 05:07:30;;;;;;;8.27;6.35;;;;;;;;;;143733;622;46021;-57
2022/01/02 05:10:00;;;;;;;9.05;6.20;;;;;;;;;;143725;605;47018;-57
2022/01/02 05:12:27;;;;;;;12.25;6.75;;;;;;;;;;143729;633;46022;-56
2022/01/02 05:14:54;;;;;;;11.12;8.20;;;;;;;;;;143727;664;46019;-57
2022/01/02 05:17:21;;;;;;;9.43;6.87;;;;;;;;;;143732;614;46022;-57
2022/01/02 05:19:48;;;;;;;9.85;7.45;;;;;;;;;;143729;583;46044;-57
2022/01/02 05:22:15;;;;;;;9.55;6.80;;;;;;;;;;143727;596;46023;-56
2022/01/02 05:24:43;;;;;;;7.93;5.93;;;;;;;;;;143727;587;46018;-57
2022/01/02 05:27:10;;;;;;;11.80;6.28;;;;;;;;;;143739;614;46022;-57
2022/01/02 05:29:37;;;;;;;9.15;5.80;;;;;;;;;;143743;579;46021;-57
2022/01/02 05:32:04;;;;;;;8.38;5.97;;;;;;;;;;143740;661;47010;-56
2022/01/02 05:34:31;;;;;;;10.95;6.05;;;;;;;;;;143745;574;46018;-57
2022/01/02 05:36:58;;;;;;;8.25;5.47;;;;;;;;;;143744;589;46023;-57
2022/01/02 05:39:25;;;;;;;8.30;5.32;;;;;;;;;;143743;593;46020;-57
2022/01/02 05:41:52;;;;;;;7.80;5.57;;;;;;;;;;143742;564;46022;-57
2022/01/02 05:44:22;;;;;;;7.70;4.97;;;;;;;;;;143743;585;46019;-57
2022/01/02 05:46:49;;;;;;;6.97;5.07;;;;;;;;;;143748;599;46022;-57
2022/01/02 05:49:17;;;;;;;6.65;5.20;;;;;;;;;;143744;570;46020;-56
2022/01/02 05:51:44;;;;;;;7.25;5.15;;;;;;;;;;143740;578;46023;-57
2022/01/02 05:54:11;;;;;;;7.78;5.32;;;;;;;;;;143742;569;46018;-57
2022/01/02 05:56:38;;;;;;;7.32;5.43;;;;;;;;;;143746;650;46022;-57
2022/01/02 05:59:05;;;;;;;10.90;5.50;;;;;;;;;;143745;634;46021;-56
2022/01/02 06:01:32;;;;;;;8.68;5.30;;;;;;;;;;143740;625;46022;-57
2022/01/02 06:04:00;;;;;;;6.22;4.62;;;;;;;;;;143742;570;46018;-57
2022/01/02 06:06:27;;;;;;;6.62;4.97;;;;;;;;;;143746;591;46023;-58
2022/01/02 06:08:54;;;;;;;7.10;4.80;;;;;;;;;;143743;644;46020;-58
2022/01/02 06:11:21;;;;;;;7.22;5.07;;;;;;;;;;143740;565;46022;-57
2022/01/02 06:13:51;;;;;;;7.78;4.55;;;;;;;;;;143741;564;46018;-57
2022/01/02 06:16:18;;;;;;;6.55;4.22;;;;;;;;;;143742;573;46022;-58
2022/01/02 06:18:45;;;;;;;7.43;4.45;;;;;;;;;;143736;736;47020;-57
2022/01/02 06:21:12;;;;;;;6.25;4.40;;;;;;;;;;143739;608;46023;-58
2022/01/02 06:23:39;;;;;;;5.57;4.18;;;;;;;;;;143741;579;46018;-58
2022/01/02 06:26:07;;;;;;;5.78;4.00;;;;;;;;;;143740;607;46022;-57
2022/01/02 06:28:34;;;;;;;7.28;4.57;;;;;;;;;;143727;566;46021;-56
2022/01/02 06:31:01;;;;;;;6.30;4.12;;;;;;;;;;143724;610;46022;-57
2022/01/02 06:33:28;;;;;;;5.85;4.37;;;;;;;;;;143727;563;46018;-57
2022/01/02 06:36:03;;;;;;;6.00;4.47;;;;;;;;;;143731;650;46023;-58
2022/01/02 06:38:31;;;;;;;7.45;4.03;;;;;;;;;;143726;604;47020;-58
2022/01/02 06:40:58;;;;;;;6.20;4.07;;;;;;;;;;143727;574;46022;-58
2022/01/02 06:43:25;;;;;;;5.50;4.00;;;;;;;;;;143727;652;46019;-58
2022/01/02 06:45:52;;;;;;;6.55;4.57;;;;;;;;;;143731;625;46022;-58
2022/01/02 06:48:19;;;;;;;4.62;3.80;;;;;;;;;;143722;577;47020;-57
2022/01/02 06:50:46;;;;;;;5.72;4.20;;;;;;;;;;143727;604;46023;-58
2022/01/02 06:53:13;;;;;;;6.05;4.40;;;;;;;;;;143725;582;46018;-57
2022/01/02 06:55:40;;;;;;;6.55;4.20;;;;;;;;;;143731;580;46022;-57
2022/01/02 06:58:07;;;;;;;6.00;4.35;;;;;;;;;;143728;571;46020;-58
2022/01/02 07:00:34;;;;;;;6.53;4.65;;;;;;;;;;143727;593;46022;-57
2022/01/02 07:03:01;;;;;;;9.65;6.37;;;;;;;;;;143726;569;46018;-57
2022/01/02 07:05:28;;;;;;;11.30;7.93;;;;;;;;;;143729;683;46022;-58
2022/01/02 07:07:55;;;;;;;9.50;6.40;;;;;;;;;;143724;627;47020;-57
2022/01/02 07:10:23;;;;;;;7.78;5.93;;;;;;;;;;143725;587;46022;-59
2022/01/02 07:12:50;;;;;;;9.00;6.47;;;;;;;;;;143727;588;46019;-57
2022/01/02 07:15:17;;;;;;;10.88;7.65;;;;;;;;;;143730;591;46022;-57
2022/01/02 07:17:44;;;;;;;8.55;6.85;;;;;;;;;;143723;645;46915;-58
2022/01/02 07:20:14;;;;;;;10.60;7.05;;;;;;;;;;143727;637;46023;-58
2022/01/02 07:22:42;;;;;;;8.05;6.55;;;;;;;;;;143725;570;46018;-57
2022/01/02 07:25:10;;;;;;;10.20;7.78;;;;;;;;;;143730;646;46022;-58
2022/01/02 07:27:38;;;;;;;9.43;6.60;;;;;;;;;;143727;602;46020;-59
2022/01/02 07:30:06;;;;;;;10.68;6.37;;;;;;;;;;143724;631;46022;-58
2022/01/02 07:32:33;;;;;;;9.32;7.62;;;;;;;;;;143725;574;46018;-57
2022/01/02 07:35:00;;;;;;;12.02;7.82;;;;;;;;;;143728;574;46023;-58
2022/01/02 07:37:27;;;;;;;11.52;8.23;;;;;;;;;;143727;610;46020;-58
2022/01/02 07:39:54;;;;;;;13.52;8.18;;;;;;;;;;143724;563;46022;-58
2022/01/02 07:42:21;;;;;;;16.10;8.63;;;;;;;;;;143727;588;46018;-57
2022/01/02 07:44:48;;;;;;;14.95;7.97;;;;;;;;;;143731;601;46022;-57
2022/01/02 07:47:15;;;;;;;11.65;6.68;;;;;;;;;;143727;590;46020;-57
2022/01/02 07:49:42;;;;;;;8.43;6.03;;;;;;;;;;143724;576;46023;-58
2022/01/02 07:52:09;;;;;;;7.85;6.40;;;;;;;;;;143729;574;46018;-57
2022/01/02 07:54:36;;;;;;;8.57;5.45;;;;;;;;;;143729;571;46022;-58
2022/01/02 07:57:03;;;;;;;8.55;6.60;;;;;;;;;;143726;565;47020;-58
2022/01/02 07:59:30;;;;;;;8.52;6.43;;;;;;;;;;143725;607;46022;-58
2022/01/02 08:01:57;;;;;;;8.55;6.12;;;;;;;;;;143724;585;46018;-58
2022/01/02 08:04:25;;;;;;;7.40;5.45;;;;;;;;;;143728;629;46023;-59
2022/01/02 08:06:51;;;;;;;11.65;6.95;;;;;;;;;;143723;613;47021;-58
2022/01/02 08:09:18;;;;;;;11.65;6.62;;;;;;;;;;143728;590;46022;-58
2022/01/02 08:11:45;;;;;;;10.65;6.90;;;;;;;;;;143726;573;46018;-57
2022/01/02 08:14:12;;;;;;;10.10;7.20;;;;;;;;;;143729;608;46023;-58
2022/01/02 08:16:39;;;;;;;12.27;7.05;;;;;;;;;;143729;606;46020;-58
2022/01/02 08:19:06;;;;;;;10.40;6.78;;;;;;;;;;143724;614;46023;-58
2022/01/02 08:21:33;;;;;;;8.98;6.20;;;;;;;;;;143726;738;46018;-58
2022/01/02 08:24:01;;;;;;;10.52;6.70;;;;;;;;;;143731;582;46022;-58
2022/01/02 08:26:28;;;;;;;11.60;6.43;;;;;;;;;;143726;791;46020;-58
2022/01/02 08:28:55;;;;;;;8.35;5.93;;;;;;;;;;143724;799;46022;-57
2022/01/02 08:31:22;;;;;;;8.10;5.90;;;;;;;;;;143727;813;46018;-58
2022/01/02 08:33:49;;;;;;;7.47;5.97;;;;;;;;;;143730;630;46022;-57
2022/01/02 08:36:16;;;;;;;12.02;6.37;;;;;;;;;;143727;576;46041;-58
2022/01/02 08:38:44;;;;;;;7.57;5.53;;;;;;;;;;143729;571;46022;-59
2022/01/02 08:41:11;;;;;;;6.97;5.30;;;;;;;;;;143729;570;46018;-59
2022/01/02 08:43:42;;;;;;;11.27;6.62;;;;;;;;;;143730;575;46023;-59
2022/01/02 08:46:09;;;;;;;13.02;6.05;;;;;;;;;;143726;602;46020;-59
2022/01/02 08:48:36;;;;;;;6.82;5.28;;;;;;;;;;143725;565;46023;-59
2022/01/02 08:51:04;;;;;;;9.68;5.78;;;;;;;;;;143724;731;46018;-58
2022/01/02 08:53:32;;;;;;;7.35;5.50;;;;;;;;;;143729;619;46022;-58
2022/01/02 08:55:59;;;;;;;8.20;5.20;;;;;;;;;;143724;569;47915;-58
2022/01/02 08:58:26;;;;;;;8.93;5.70;;;;;;;;;;143725;615;46023;-58
2022/01/02 09:00:53;;;;;;;7.20;5.65;;;;;;;;;;143727;915;46018;-58
2022/01/02 09:03:20;;;;;;;6.30;4.47;;;;;;;;;;143726;580;46023;-58
2022/01/02 09:05:47;;;;;;;8.57;5.22;;;;;;;;;;143725;590;47021;-58
2022/01/02 09:08:14;;;;;;;6.87;5.05;;;;;;;;;;143724;563;46022;-58
2022/01/02 09:10:41;;;;;;;6.97;5.00;;;;;;;;;;143726;616;46018;-58
2022/01/02 09:13:08;;;;;;;6.82;4.75;;;;;;;;;;143728;600;46023;-58
2022/01/02 09:15:38;;;;;;;7.10;4.72;;;;;;;;;;143727;630;46020;-58
2022/01/02 09:18:05;;;;;;;6.12;4.57;;;;;;;;;;143725;584;46919;-59
2022/01/02 09:20:33;;;;;;;7.47;5.45;;;;;;;;;;143727;576;46019;-58
2022/01/02 09:23:00;;;;;;;7.72;5.60;;;;;;;;;;143728;569;46022;-58
2022/01/02 09:25:30;;;;;;;7.82;5.20;;;;;;;;;;143725;623;46046;-58
2022/01/02 09:27:57;;;;;;;9.38;5.50;;;;;;;;;;143724;586;46023;-58
2022/01/02 09:30:24;;;;;;;7.20;5.45;;;;;;;;;;143726;597;46018;-58
2022/01/02 09:32:55;;;;;;;7.78;5.05;;;;;;;;;;143727;569;46022;-57
2022/01/02 09:35:22;;;;;;;7.25;4.90;;;;;;;;;;143723;616;47021;-58
2022/01/02 09:37:49;;;;;;;8.52;5.70;;;;;;;;;;143726;577;46031;-57
2022/01/02 09:40:16;;;;;;;10.73;5.53;;;;;;;;;;143723;570;46018;-58
2022/01/02 09:42:43;;;;;;;7.30;5.10;;;;;;;;;;143728;566;46023;-57
2022/01/02 09:45:10;;;;;;;7.43;5.25;;;;;;;;;;143729;602;47018;-58
2022/01/02 09:47:37;;;;;;;6.70;5.15;;;;;;;;;;143727;564;46032;-58
2022/01/02 09:50:09;;;;;;;12.10;6.20;;;;;;;;;;143725;590;46019;-58
2022/01/02 09:52:37;;;;;;;7.32;5.37;;;;;;;;;;143730;623;46022;-58
2022/01/02 09:55:05;;;;;;;11.10;4.90;;;;;;;;;;143728;584;46020;-56
2022/01/02 09:57:32;;;;;;;9.23;5.20;;;;;;;;;;143725;583;46023;-57
2022/01/02 10:00:01;;;;;;;9.48;4.93;;;;;;;;;;143725;573;46018;-57
2022/01/02 10:02:59;;;;;;;11.20;5.60;;;;;;;;;;143730;630;46022;-56
2022/01/02 10:05:28;;;;;;;10.43;6.50;;;;;;;;;;143726;583;46021;-57
2022/01/02 10:07:57;;;;;;;8.45;5.32;;;;;;;;;;143724;564;46022;-56
2022/01/02 10:10:33;;;;;;;8.55;5.43;;;;;;;;;;143727;570;46018;-56
2022/01/02 10:13:02;;;;;;;10.13;5.87;;;;;;;;;;143730;573;46023;-56
2022/01/02 10:15:31;;;;;;;11.05;5.10;;;;;;;;;;143727;589;46020;-57
2022/01/02 10:18:25;;;;;;;6.97;4.93;;;;;;;;;;143727;596;46023;-57
2022/01/02 10:20:51;;;;;;;7.70;5.00;;;;;;;;;;143725;578;46018;-55
2022/01/02 10:23:29;;;;;;;7.95;4.90;;;;;;;;;;143729;569;46022;-56
2022/01/02 10:26:00;;;;;;;7.30;5.25;;;;;;;;;;143726;632;46020;-57
2022/01/02 10:28:39;;;;;;;7.28;5.03;;;;;;;;;;143732;564;46923;-56
2022/01/02 10:31:15;;;;;;;6.60;5.05;;;;;;;;;;143725;593;46020;-57
2022/01/02 10:34:00;;;;;;;8.43;5.15;;;;;;;;;;143728;612;46021;-56
2022/01/02 10:36:37;;;;;;;7.97;4.75;;;;;;;;;;143727;673;46022;-56
2022/01/02 10:39:12;;;;;;;14.30;5.25;;;;;;;;;;143725;585;46020;-56
2022/01/02 10:41:43;;;;;;;7.40;5.60;;;;;;;;;;143726;574;46021;-55
2022/01/02 10:44:42;;;;;;;8.55;4.78;;;;;;;;;;143726;569;46020;-57
2022/01/02 10:47:21;;;;;;;6.22;4.75;;;;;;;;;;143726;595;46022;-55
2022/01/02 10:50:08;;;;;;;6.90;5.00;;;;;;;;;;143724;564;46021;-57
2022/01/02 10:52:40;;;;;;;11.95;4.82;;;;;;;;;;143727;571;46020;-56
2022/01/02 10:55:24;;;;;;;5.93;4.57;;;;;;;;;;143729;649;46020;-56
2022/01/02 10:57:54;;;;;;;6.75;5.12;;;;;;;;;;143727;571;46023;-57
2022/01/02 11:00:27;;;;;;;9.65;4.90;;;;;;;;;;143721;622;46020;-56
2022/01/02 11:02:54;;;;;;;7.40;5.05;;;;;;;;;;143724;591;46020;-56
2022/01/02 11:05:22;;;;;;;6.97;5.12;;;;;;;;;;143730;581;46020;-57
2022/01/02 11:07:51;;;;;;;6.78;4.97;;;;;;;;;;143725;608;47022;-56
2022/01/02 11:10:23;;;;;;;6.25;4.78;;;;;;;;;;143727;595;46021;-58
2022/01/02 11:12:51;;;;;;;23.05;17.85;;;;;;;;;;143726;606;46020;-57
2022/01/02 11:15:20;;;;;;;33.67;26.92;;;;;;;;;;143730;589;46020;-56
2022/01/02 11:17:48;;;;;;;30.08;24.30;;;;;;;;;;143726;567;47022;-57
2022/01/02 11:20:21;;;;;;;20.20;15.50;;;;;;;;;;143724;595;46020;-57
2022/01/02 11:23:12;;;;;;;17.23;13.82;;;;;;;;;;143725;565;46020;-58
2022/01/02 11:26:27;;;;;;;14.23;10.95;;;;;;;;;;143730;569;46020;-58
2022/01/02 11:28:53;;;;;;;14.07;10.30;;;;;;;;;;143724;624;47022;-56
2022/01/02 11:31:37;;;;;;;12.70;8.63;;;;;;;;;;143725;577;46020;-57
2022/01/02 11:34:27;;;;;;;8.63;6.37;;;;;;;;;;143725;590;46021;-57
2022/01/02 11:37:33;;;;;;;10.68;8.00;;;;;;;;;;143728;592;47027;-57
2022/01/02 11:40:03;;;;;;;11.02;7.37;;;;;;;;;;143727;567;46022;-55
2022/01/02 11:42:56;;;;;;;10.52;8.45;;;;;;;;;;143725;592;46020;-56
2022/01/02 11:45:43;;;;;;;9.85;6.45;;;;;;;;;;143726;603;46020;-56
2022/01/02 11:48:29;;;;;;;7.97;6.35;;;;;;;;;;143729;585;46021;-56
2022/01/02 11:50:56;;;;;;;7.72;5.62;;;;;;;;;;143727;619;46022;-57
2022/01/02 11:53:25;;;;;;;8.80;5.95;;;;;;;;;;143729;582;46020;-57
2022/01/02 11:55:54;;;;;;;9.63;7.12;;;;;;;;;;143727;614;46021;-57
2022/01/02 11:58:58;;;;;;;8.45;6.18;;;;;;;;;;143730;574;46020;-57
2022/01/02 12:01:50;;;;;;;6.32;4.68;;;;;;;;;;143728;611;46024;-56
2022/01/02 12:04:17;;;;;;;6.60;5.22;;;;;;;;;;143724;611;46020;-57
2022/01/02 12:06:52;;;;;;;6.75;4.37;;;;;;;;;;143724;635;46020;-57
2022/01/02 12:09:38;;;;;;;7.45;5.57;;;;;;;;;;143730;629;46020;-57
2022/01/02 12:12:06;;;;;;;9.18;5.57;;;;;;;;;;143729;574;46023;-55
2022/01/02 12:14:54;;;;;;;7.32;4.35;;;;;;;;;;143725;572;46020;-57
2022/01/02 12:17:24;;;;;;;5.10;4.00;;;;;;;;;;143725;622;46020;-57
2022/01/02 12:20:00;;;;;;;6.82;4.87;;;;;;;;;;143731;634;46020;-56
2022/01/02 12:22:48;;;;;;;7.43;4.97;;;;;;;;;;143725;563;46022;-57
2022/01/02 12:25:20;;;;;;;6.47;5.18;;;;;;;;;;143726;565;46021;-56
2022/01/02 12:27:55;;;;;;;7.05;5.43;;;;;;;;;;143725;595;46020;-56
2022/01/02 12:30:23;;;;;;;6.22;4.43;;;;;;;;;;143730;585;46020;-57
2022/01/02 12:32:50;;;;;;;5.53;3.75;;;;;;;;;;143725;636;47022;-57
2022/01/02 12:35:17;;;;;;;7.30;5.53;;;;;;;;;;143726;594;46020;-57
2022/01/02 12:38:00;;;;;;;8.82;5.05;;;;;;;;;;143725;580;46020;-56
2022/01/02 12:40:35;;;;;;;10.48;5.78;;;;;;;;;;143731;619;46020;-56
2022/01/02 12:43:02;;;;;;;8.02;5.05;;;;;;;;;;143727;598;46022;-57
2022/01/02 12:45:30;;;;;;;5.78;4.10;;;;;;;;;;143726;628;46020;-57
2022/01/02 12:47:57;;;;;;;6.43;4.07;;;;;;;;;;143727;691;46020;-57
2022/01/02 12:50:26;;;;;;;9.05;4.47;;;;;;;;;;143728;641;46020;-57
2022/01/02 12:52:54;;;;;;;6.22;4.30;;;;;;;;;;143728;766;46022;-56
2022/01/02 12:55:21;;;;;;;7.00;5.30;;;;;;;;;;143725;645;46029;-58
2022/01/02 12:57:49;;;;;;;7.12;4.93;;;;;;;;;;143725;583;46020;-56
2022/01/02 13:00:21;;;;;;;6.97;4.72;;;;;;;;;;143728;641;46020;-56
2022/01/02 13:02:52;;;;;;;5.80;4.43;;;;;;;;;;143726;688;46023;-57
2022/01/02 13:05:19;;;;;;;5.78;4.43;;;;;;;;;;143725;629;46020;-56
2022/01/02 13:07:46;;;;;;;6.70;4.70;;;;;;;;;;143724;608;46020;-55
2022/01/02 13:10:15;;;;;;;7.55;5.07;;;;;;;;;;143730;592;46021;-56
2022/01/02 13:12:48;;;;;;;6.53;4.68;;;;;;;;;;143728;780;46022;-57
2022/01/02 13:15:17;;;;;;;8.05;5.10;;;;;;;;;;143726;891;46020;-57
2022/01/02 13:17:49;;;;;;;5.80;4.53;;;;;;;;;;143726;897;46021;-56
2022/01/02 13:20:21;;;;;;;5.70;4.50;;;;;;;;;;143731;581;46020;-57
2022/01/02 13:22:51;;;;;;;6.10;4.55;;;;;;;;;;143726;626;47022;-57
2022/01/02 13:25:27;;;;;;;7.93;4.90;;;;;;;;;;143726;573;46021;-59
2022/01/02 13:28:04;;;;;;;7.75;5.50;;;;;;;;;;143725;745;46020;-59
2022/01/02 13:30:49;;;;;;;8.05;5.25;;;;;;;;;;143729;625;46020;-59
2022/01/02 13:33:31;;;;;;;5.62;4.43;;;;;;;;;;143726;701;47021;-58
2022/01/02 13:36:08;;;;;;;6.60;4.80;;;;;;;;;;143724;629;46020;-58
2022/01/02 13:38:52;;;;;;;7.45;4.95;;;;;;;;;;143726;580;46020;-58
2022/01/02 13:41:19;;;;;;;8.60;5.10;;;;;;;;;;143730;612;46021;-58
2022/01/02 13:43:46;;;;;;;7.05;5.28;;;;;;;;;;143728;760;46022;-58
2022/01/02 13:46:13;;;;;;;7.25;5.37;;;;;;;;;;143726;593;46020;-57
2022/01/02 13:48:42;;;;;;;8.38;5.68;;;;;;;;;;143725;567;46021;-59
2022/01/02 13:51:17;;;;;;;6.25;4.82;;;;;;;;;;143731;808;46020;-58
2022/01/02 13:53:44;;;;;;;6.37;4.78;;;;;;;;;;143727;672;46022;-58
2022/01/02 13:56:15;;;;;;;7.78;4.50;;;;;;;;;;143727;566;46020;-59
2022/01/02 13:58:47;;;;;;;7.80;4.80;;;;;;;;;;143728;569;46020;-58
2022/01/02 14:01:29;;;;;;;6.45;4.90;;;;;;;;;;143731;839;46020;-58
2022/01/02 14:04:14;;;;;;;5.70;4.45;;;;;;;;;;143725;844;47023;-57
2022/01/02 14:06:41;;;;;;;7.05;4.90;;;;;;;;;;143726;656;46020;-59
2022/01/02 14:09:10;;;;;;;8.50;5.45;;;;;;;;;;143728;620;46020;-58
2022/01/02 14:11:38;;;;;;;7.05;4.80;;;;;;;;;;143731;569;46020;-59
2022/01/02 14:17:14;;;;;;;8.48;5.22;;;;;;;;;;143731;636;45917;-59
2022/01/02 14:19:44;;;;;;;7.40;5.47;;;;;;;;;;143726;566;46020;-57
2022/01/02 14:22:13;;;;;;;7.53;5.35;;;;;;;;;;143732;579;46020;-59
2022/01/02 14:24:41;;;;;;;6.87;5.10;;;;;;;;;;143729;581;46047;-58
2022/01/02 14:27:09;;;;;;;7.25;5.50;;;;;;;;;;143728;625;46020;-57
2022/01/02 14:29:36;;;;;;;7.07;5.50;;;;;;;;;;143726;639;46020;-58
2022/01/02 14:32:03;;;;;;;13.15;5.90;;;;;;;;;;143732;620;46020;-58
2022/01/02 14:34:30;;;;;;;8.18;5.60;;;;;;;;;;143728;589;46022;-58
2022/01/02 14:36:57;;;;;;;8.52;5.68;;;;;;;;;;143729;594;46020;-58
2022/01/02 14:39:25;;;;;;;8.38;5.72;;;;;;;;;;143729;589;46021;-58
2022/01/02 14:41:52;;;;;;;6.90;5.07;;;;;;;;;;143729;621;46020;-58
2022/01/02 14:44:19;;;;;;;8.35;5.50;;;;;;;;;;143728;566;46022;-58
2022/01/02 14:46:48;;;;;;;9.80;5.65;;;;;;;;;;143727;596;46918;-58
2022/01/02 14:49:16;;;;;;;8.23;5.57;;;;;;;;;;143726;586;46020;-58
2022/01/02 14:51:43;;;;;;;7.72;5.50;;;;;;;;;;143730;578;46020;-58
2022/01/02 14:54:13;;;;;;;8.43;5.25;;;;;;;;;;143730;613;46030;-59
2022/01/02 14:56:40;;;;;;;8.15;5.50;;;;;;;;;;143729;587;46020;-58
2022/01/02 14:59:12;;;;;;;10.35;6.35;;;;;;;;;;143726;590;46020;-57
2022/01/02 15:01:43;;;;;;;6.75;5.10;;;;;;;;;;143733;587;46021;-57
2022/01/02 15:04:10;;;;;;;9.95;6.05;;;;;;;;;;143727;609;46052;-58
2022/01/02 15:06:38;;;;;;;7.97;5.85;;;;;;;;;;143729;680;46020;-57